sensor_id;sensor_type;location;lat;lon;timestamp;temperature;humidity
43858;DHT22;29507;51.284;5.758;2023-03-01T00:01:13;-2.00;99.90
43858;DHT22;29507;51.284;5.758;2023-03-01T00:03:39;-2.00;99.90
43858;DHT22;29507;51.284;5.758;2023-03-01T00:06:05;-2.00;99.90
43858;DHT22;29507;51.284;5.758;2023-03-01T00:08:31;-2.00;99.90
43858;DHT22;29507;51.284;5.758;2023-03-01T00:11:06;-2.00;99.90
43858;DHT22;29507;51.284;5.758;2023-03-01T00:13:32;-2.10;99.90
43858;DHT22;29507;51.284;5.758;2023-03-01T00:15:58;-2.10;99.90
43858;DHT22;29507;51.284;5.758;2023-03-01T00:18:24;-2.10;99.90
43858;DHT22;29507;51.284;5.758;2023-03-01T00:20:54;-2.00;99.90
43858;DHT22;29507;51.284;5.758;2023-03-01T00:23:20;-2.10;99.90
43858;DHT22;29507;51.284;5.758;2023-03-01T00:25:46;-2.10;99.90
43858;DHT22;29507;51.284;5.758;2023-03-01T00:28:12;-2.20;99.90
43858;DHT22;29507;51.284;5.758;2023-03-01T00:30:37;-2.20;99.90
43858;DHT22;29507;51.284;5.758;2023-03-01T00:33:03;-2.20;99.90
43858;DHT22;29507;51.284;5.758;2023-03-01T00:35:29;-2.20;99.90
43858;DHT22;29507;51.284;5.758;2023-03-01T00:37:56;-2.20;99.90
43858;DHT22;29507;51.284;5.758;2023-03-01T00:40:33;-2.10;99.90
43858;DHT22;29507;51.284;5.758;2023-03-01T00:42:59;-2.10;99.90
43858;DHT22;29507;51.284;5.758;2023-03-01T00:45:25;-2.00;99.90
43858;DHT22;29507;51.284;5.758;2023-03-01T00:47:51;-2.00;99.90
43858;DHT22;29507;51.284;5.758;2023-03-01T00:50:17;-1.90;99.90
43858;DHT22;29507;51.284;5.758;2023-03-01T00:52:43;-2.00;99.90
43858;DHT22;29507;51.284;5.758;2023-03-01T00:55:10;-2.10;99.90
43858;DHT22;29507;51.284;5.758;2023-03-01T00:57:36;-2.10;99.90
43858;DHT22;29507;51.284;5.758;2023-03-01T01:00:02;-2.20;99.90
43858;DHT22;29507;51.284;5.758;2023-03-01T01:02:29;-2.10;99.90
43858;DHT22;29507;51.284;5.758;2023-03-01T01:04:55;-2.10;99.90
43858;DHT22;29507;51.284;5.758;2023-03-01T01:07:20;-2.30;99.90
43858;DHT22;29507;51.284;5.758;2023-03-01T01:09:46;-2.40;99.90
43858;DHT22;29507;51.284;5.758;2023-03-01T01:12:12;-2.50;99.90
43858;DHT22;29507;51.284;5.758;2023-03-01T01:14:38;-2.60;99.90
43858;DHT22;29507;51.284;5.758;2023-03-01T01:17:04;-2.70;99.90
43858;DHT22;29507;51.284;5.758;2023-03-01T01:19:30;-2.80;99.90
43858;DHT22;29507;51.284;5.758;2023-03-01T01:21:55;-2.90;99.90
43858;DHT22;29507;51.284;5.758;2023-03-01T01:24:21;-3.00;99.90
43858;DHT22;29507;51.284;5.758;2023-03-01T01:26:46;-3.00;99.90
43858;DHT22;29507;51.284;5.758;2023-03-01T01:29:12;-3.00;99.90
43858;DHT22;29507;51.284;5.758;2023-03-01T01:31:41;-2.90;99.90
43858;DHT22;29507;51.284;5.758;2023-03-01T01:34:08;-3.10;99.90
43858;DHT22;29507;51.284;5.758;2023-03-01T01:36:35;-3.10;99.90
43858;DHT22;29507;51.284;5.758;2023-03-01T01:39:01;-3.30;99.90
43858;DHT22;29507;51.284;5.758;2023-03-01T01:41:27;-3.40;99.90
43858;DHT22;29507;51.284;5.758;2023-03-01T01:44:15;-3.50;99.90
43858;DHT22;29507;51.284;5.758;2023-03-01T01:49:33;-3.60;99.90
43858;DHT22;29507;51.284;5.758;2023-03-01T01:52:18;-3.60;99.90
43858;DHT22;29507;51.284;5.758;2023-03-01T01:54:48;-3.50;99.90
43858;DHT22;29507;51.284;5.758;2023-03-01T01:57:21;-3.60;99.90
43858;DHT22;29507;51.284;5.758;2023-03-01T01:59:51;-3.60;99.90
43858;DHT22;29507;51.284;5.758;2023-03-01T02:02:18;-3.70;99.90
43858;DHT22;29507;51.284;5.758;2023-03-01T02:04:45;-3.60;99.90
43858;DHT22;29507;51.284;5.758;2023-03-01T02:07:18;-3.50;99.90
43858;DHT22;29507;51.284;5.758;2023-03-01T02:09:50;-3.40;99.90
43858;DHT22;29507;51.284;5.758;2023-03-01T02:12:19;-3.40;99.90
43858;DHT22;29507;51.284;5.758;2023-03-01T02:14:45;-3.40;99.90
43858;DHT22;29507;51.284;5.758;2023-03-01T02:17:16;-3.50;99.90
43858;DHT22;29507;51.284;5.758;2023-03-01T02:20:04;-3.50;99.90
43858;DHT22;29507;51.284;5.758;2023-03-01T02:22:36;-3.50;99.90
43858;DHT22;29507;51.284;5.758;2023-03-01T02:28:04;-3.40;99.90
43858;DHT22;29507;51.284;5.758;2023-03-01T02:30:31;-3.40;99.90
43858;DHT22;29507;51.284;5.758;2023-03-01T02:32:59;-3.50;99.90
43858;DHT22;29507;51.284;5.758;2023-03-01T02:35:30;-3.40;99.90
43858;DHT22;29507;51.284;5.758;2023-03-01T02:37:57;-3.40;99.90
43858;DHT22;29507;51.284;5.758;2023-03-01T02:40:28;-3.40;99.90
43858;DHT22;29507;51.284;5.758;2023-03-01T02:42:58;-3.50;99.90
43858;DHT22;29507;51.284;5.758;2023-03-01T02:45:25;-3.50;99.90
43858;DHT22;29507;51.284;5.758;2023-03-01T02:47:54;-3.50;99.90
43858;DHT22;29507;51.284;5.758;2023-03-01T02:55:27;-3.50;99.90
43858;DHT22;29507;51.284;5.758;2023-03-01T02:57:53;-3.40;99.90
43858;DHT22;29507;51.284;5.758;2023-03-01T03:00:24;-3.40;99.90
43858;DHT22;29507;51.284;5.758;2023-03-01T03:02:54;-3.40;99.90
43858;DHT22;29507;51.284;5.758;2023-03-01T03:05:29;-3.40;99.90
43858;DHT22;29507;51.284;5.758;2023-03-01T03:07:56;-3.20;99.90
43858;DHT22;29507;51.284;5.758;2023-03-01T03:10:27;-3.10;99.90
43858;DHT22;29507;51.284;5.758;2023-03-01T03:12:55;-3.20;99.90
43858;DHT22;29507;51.284;5.758;2023-03-01T03:15:22;-3.20;99.90
43858;DHT22;29507;51.284;5.758;2023-03-01T03:17:48;-3.20;99.90
43858;DHT22;29507;51.284;5.758;2023-03-01T03:20:16;-3.20;99.90
43858;DHT22;29507;51.284;5.758;2023-03-01T03:22:45;-3.20;99.90
43858;DHT22;29507;51.284;5.758;2023-03-01T03:25:12;-3.20;99.90
43858;DHT22;29507;51.284;5.758;2023-03-01T03:27:38;-3.30;99.90
43858;DHT22;29507;51.284;5.758;2023-03-01T03:30:06;-3.40;99.90
43858;DHT22;29507;51.284;5.758;2023-03-01T03:32:38;-3.30;99.90
43858;DHT22;29507;51.284;5.758;2023-03-01T03:35:05;-3.30;99.90
43858;DHT22;29507;51.284;5.758;2023-03-01T03:37:39;-3.30;99.90
43858;DHT22;29507;51.284;5.758;2023-03-01T03:40:24;-3.40;99.90
43858;DHT22;29507;51.284;5.758;2023-03-01T03:42:49;-3.50;99.90
43858;DHT22;29507;51.284;5.758;2023-03-01T03:45:16;-3.60;99.90
43858;DHT22;29507;51.284;5.758;2023-03-01T03:47:42;-3.70;99.90
43858;DHT22;29507;51.284;5.758;2023-03-01T03:50:13;-3.70;99.90
43858;DHT22;29507;51.284;5.758;2023-03-01T03:52:39;-3.60;99.90
43858;DHT22;29507;51.284;5.758;2023-03-01T03:55:06;-3.60;99.90
43858;DHT22;29507;51.284;5.758;2023-03-01T03:57:36;-3.50;99.90
43858;DHT22;29507;51.284;5.758;2023-03-01T04:00:02;-3.50;99.90
43858;DHT22;29507;51.284;5.758;2023-03-01T04:02:30;-3.50;99.90
43858;DHT22;29507;51.284;5.758;2023-03-01T04:04:56;-3.50;99.90
43858;DHT22;29507;51.284;5.758;2023-03-01T04:07:21;-3.60;99.90
43858;DHT22;29507;51.284;5.758;2023-03-01T04:09:47;-3.60;99.90
43858;DHT22;29507;51.284;5.758;2023-03-01T04:12:13;-3.70;99.90
43858;DHT22;29507;51.284;5.758;2023-03-01T04:14:38;-3.70;99.90
43858;DHT22;29507;51.284;5.758;2023-03-01T04:17:04;-3.70;99.90
43858;DHT22;29507;51.284;5.758;2023-03-01T04:19:31;-3.70;99.90
43858;DHT22;29507;51.284;5.758;2023-03-01T04:22:02;-3.70;99.90
43858;DHT22;29507;51.284;5.758;2023-03-01T04:24:33;-3.60;99.90
43858;DHT22;29507;51.284;5.758;2023-03-01T04:26:59;-3.70;99.90
43858;DHT22;29507;51.284;5.758;2023-03-01T04:29:24;-3.60;99.90
43858;DHT22;29507;51.284;5.758;2023-03-01T04:31:50;-3.60;99.90
43858;DHT22;29507;51.284;5.758;2023-03-01T04:34:15;-3.70;99.90
43858;DHT22;29507;51.284;5.758;2023-03-01T04:36:41;-3.70;99.90
43858;DHT22;29507;51.284;5.758;2023-03-01T04:39:06;-3.90;99.90
43858;DHT22;29507;51.284;5.758;2023-03-01T04:41:38;-4.00;99.90
43858;DHT22;29507;51.284;5.758;2023-03-01T04:44:09;-4.00;99.90
43858;DHT22;29507;51.284;5.758;2023-03-01T04:46:35;-4.10;99.90
43858;DHT22;29507;51.284;5.758;2023-03-01T04:49:02;-4.20;99.90
43858;DHT22;29507;51.284;5.758;2023-03-01T04:51:28;-4.30;99.90
43858;DHT22;29507;51.284;5.758;2023-03-01T04:53:53;-4.30;99.90
43858;DHT22;29507;51.284;5.758;2023-03-01T04:56:19;-4.40;99.90
43858;DHT22;29507;51.284;5.758;2023-03-01T04:58:45;-4.40;99.90
43858;DHT22;29507;51.284;5.758;2023-03-01T05:01:16;-4.40;99.90
43858;DHT22;29507;51.284;5.758;2023-03-01T05:03:50;-4.30;99.90
43858;DHT22;29507;51.284;5.758;2023-03-01T05:06:17;-4.30;99.90
43858;DHT22;29507;51.284;5.758;2023-03-01T05:08:43;-4.20;99.90
43858;DHT22;29507;51.284;5.758;2023-03-01T05:11:09;-4.20;99.90
43858;DHT22;29507;51.284;5.758;2023-03-01T05:13:36;-4.20;99.90
43858;DHT22;29507;51.284;5.758;2023-03-01T05:16:03;-4.10;99.90
43858;DHT22;29507;51.284;5.758;2023-03-01T05:18:30;-4.20;99.90
43858;DHT22;29507;51.284;5.758;2023-03-01T05:21:03;-4.20;99.90
43858;DHT22;29507;51.284;5.758;2023-03-01T05:23:31;-4.10;99.90
43858;DHT22;29507;51.284;5.758;2023-03-01T05:26:00;-4.20;99.90
43858;DHT22;29507;51.284;5.758;2023-03-01T05:28:27;-4.30;99.90
43858;DHT22;29507;51.284;5.758;2023-03-01T05:30:54;-4.30;99.90
43858;DHT22;29507;51.284;5.758;2023-03-01T05:33:19;-4.30;99.90
43858;DHT22;29507;51.284;5.758;2023-03-01T05:35:47;-4.30;99.90
43858;DHT22;29507;51.284;5.758;2023-03-01T05:38:14;-4.30;99.90
43858;DHT22;29507;51.284;5.758;2023-03-01T05:40:42;-4.30;99.90
43858;DHT22;29507;51.284;5.758;2023-03-01T05:43:08;-4.20;99.90
43858;DHT22;29507;51.284;5.758;2023-03-01T05:45:36;-4.30;99.90
43858;DHT22;29507;51.284;5.758;2023-03-01T05:48:02;-4.40;99.90
43858;DHT22;29507;51.284;5.758;2023-03-01T05:50:29;-4.50;99.90
43858;DHT22;29507;51.284;5.758;2023-03-01T05:53:10;-4.60;99.90
43858;DHT22;29507;51.284;5.758;2023-03-01T05:55:37;-4.60;99.90
43858;DHT22;29507;51.284;5.758;2023-03-01T05:58:05;-4.60;99.90
43858;DHT22;29507;51.284;5.758;2023-03-01T06:00:31;-4.50;99.90
43858;DHT22;29507;51.284;5.758;2023-03-01T06:02:58;-4.50;99.90
43858;DHT22;29507;51.284;5.758;2023-03-01T06:05:25;-4.50;99.90
43858;DHT22;29507;51.284;5.758;2023-03-01T06:07:50;-4.50;99.90
43858;DHT22;29507;51.284;5.758;2023-03-01T06:10:17;-4.50;99.90
43858;DHT22;29507;51.284;5.758;2023-03-01T06:12:44;-4.40;99.90
43858;DHT22;29507;51.284;5.758;2023-03-01T06:15:14;-4.40;99.90
43858;DHT22;29507;51.284;5.758;2023-03-01T06:17:42;-4.40;99.90
43858;DHT22;29507;51.284;5.758;2023-03-01T06:20:28;-4.40;99.90
43858;DHT22;29507;51.284;5.758;2023-03-01T06:22:53;-4.30;99.90
43858;DHT22;29507;51.284;5.758;2023-03-01T06:25:22;-4.40;99.90
43858;DHT22;29507;51.284;5.758;2023-03-01T06:27:49;-4.40;99.90
43858;DHT22;29507;51.284;5.758;2023-03-01T06:30:16;-4.40;99.90
43858;DHT22;29507;51.284;5.758;2023-03-01T06:32:42;-4.40;99.90
43858;DHT22;29507;51.284;5.758;2023-03-01T06:35:09;-4.40;99.90
43858;DHT22;29507;51.284;5.758;2023-03-01T06:37:36;-4.30;99.90
43858;DHT22;29507;51.284;5.758;2023-03-01T06:40:03;-4.10;99.90
43858;DHT22;29507;51.284;5.758;2023-03-01T06:42:37;-3.90;99.90
43858;DHT22;29507;51.284;5.758;2023-03-01T06:45:05;-3.60;99.90
43858;DHT22;29507;51.284;5.758;2023-03-01T06:47:31;-3.30;99.90
43858;DHT22;29507;51.284;5.758;2023-03-01T06:49:56;-3.00;99.90
43858;DHT22;29507;51.284;5.758;2023-03-01T06:52:22;-2.60;99.90
43858;DHT22;29507;51.284;5.758;2023-03-01T06:54:48;-2.30;99.90
43858;DHT22;29507;51.284;5.758;2023-03-01T06:57:13;-2.10;99.90
43858;DHT22;29507;51.284;5.758;2023-03-01T06:59:39;-1.80;99.90
43858;DHT22;29507;51.284;5.758;2023-03-01T07:02:04;-1.60;99.90
43858;DHT22;29507;51.284;5.758;2023-03-01T07:04:30;-1.30;99.90
43858;DHT22;29507;51.284;5.758;2023-03-01T07:06:56;-0.90;99.90
43858;DHT22;29507;51.284;5.758;2023-03-01T07:09:22;-0.60;99.90
43858;DHT22;29507;51.284;5.758;2023-03-01T07:11:49;-0.50;99.90
43858;DHT22;29507;51.284;5.758;2023-03-01T07:14:15;-0.30;99.90
43858;DHT22;29507;51.284;5.758;2023-03-01T07:16:41;0.10;99.90
43858;DHT22;29507;51.284;5.758;2023-03-01T07:19:06;0.30;99.90
43858;DHT22;29507;51.284;5.758;2023-03-01T07:21:32;0.50;99.90
43858;DHT22;29507;51.284;5.758;2023-03-01T07:23:57;1.00;99.90
43858;DHT22;29507;51.284;5.758;2023-03-01T07:26:23;1.40;99.90
43858;DHT22;29507;51.284;5.758;2023-03-01T07:28:49;1.70;99.90
43858;DHT22;29507;51.284;5.758;2023-03-01T07:31:14;1.90;99.90
43858;DHT22;29507;51.284;5.758;2023-03-01T07:33:40;1.80;99.90
43858;DHT22;29507;51.284;5.758;2023-03-01T07:36:07;1.90;99.90
43858;DHT22;29507;51.284;5.758;2023-03-01T07:38:32;1.90;99.90
43858;DHT22;29507;51.284;5.758;2023-03-01T07:41:03;2.00;99.90
43858;DHT22;29507;51.284;5.758;2023-03-01T07:43:29;1.50;99.90
43858;DHT22;29507;51.284;5.758;2023-03-01T07:45:58;0.90;99.90
43858;DHT22;29507;51.284;5.758;2023-03-01T07:48:24;0.20;99.90
43858;DHT22;29507;51.284;5.758;2023-03-01T07:50:50;-0.50;99.90
43858;DHT22;29507;51.284;5.758;2023-03-01T07:53:15;-0.90;99.90
43858;DHT22;29507;51.284;5.758;2023-03-01T07:55:41;-1.20;99.90
43858;DHT22;29507;51.284;5.758;2023-03-01T07:58:06;-1.40;99.90
43858;DHT22;29507;51.284;5.758;2023-03-01T08:00:33;-1.40;99.90
43858;DHT22;29507;51.284;5.758;2023-03-01T08:02:59;-1.40;99.90
43858;DHT22;29507;51.284;5.758;2023-03-01T08:05:26;-1.40;99.90
43858;DHT22;29507;51.284;5.758;2023-03-01T08:07:52;-1.40;99.90
43858;DHT22;29507;51.284;5.758;2023-03-01T08:10:18;-1.40;99.90
43858;DHT22;29507;51.284;5.758;2023-03-01T08:12:43;-1.40;99.90
43858;DHT22;29507;51.284;5.758;2023-03-01T08:15:09;-1.40;99.90
43858;DHT22;29507;51.284;5.758;2023-03-01T08:17:35;-1.30;99.90
43858;DHT22;29507;51.284;5.758;2023-03-01T08:20:01;-1.30;99.90
43858;DHT22;29507;51.284;5.758;2023-03-01T08:22:26;-1.20;99.90
43858;DHT22;29507;51.284;5.758;2023-03-01T08:24:52;-1.10;99.90
43858;DHT22;29507;51.284;5.758;2023-03-01T08:27:18;-1.00;99.90
43858;DHT22;29507;51.284;5.758;2023-03-01T08:29:43;-0.80;99.90
43858;DHT22;29507;51.284;5.758;2023-03-01T08:32:09;-0.90;99.90
43858;DHT22;29507;51.284;5.758;2023-03-01T08:34:34;-0.80;99.90
43858;DHT22;29507;51.284;5.758;2023-03-01T08:37:01;-0.70;99.90
43858;DHT22;29507;51.284;5.758;2023-03-01T08:39:27;-0.60;99.90
43858;DHT22;29507;51.284;5.758;2023-03-01T08:41:53;-0.50;99.90
43858;DHT22;29507;51.284;5.758;2023-03-01T08:44:19;-0.40;99.90
43858;DHT22;29507;51.284;5.758;2023-03-01T08:46:46;-0.30;99.90
43858;DHT22;29507;51.284;5.758;2023-03-01T08:49:14;-0.30;99.90
43858;DHT22;29507;51.284;5.758;2023-03-01T08:51:40;-0.20;99.90
43858;DHT22;29507;51.284;5.758;2023-03-01T08:54:09;0.00;99.90
43858;DHT22;29507;51.284;5.758;2023-03-01T08:56:36;0.30;99.90
43858;DHT22;29507;51.284;5.758;2023-03-01T08:59:02;1.50;99.90
43858;DHT22;29507;51.284;5.758;2023-03-01T09:01:27;3.10;99.90
43858;DHT22;29507;51.284;5.758;2023-03-01T09:03:53;4.40;99.90
43858;DHT22;29507;51.284;5.758;2023-03-01T09:06:19;5.10;99.90
43858;DHT22;29507;51.284;5.758;2023-03-01T09:08:47;5.40;99.00
43858;DHT22;29507;51.284;5.758;2023-03-01T09:11:16;5.80;97.10
43858;DHT22;29507;51.284;5.758;2023-03-01T09:13:43;6.10;96.30
43858;DHT22;29507;51.284;5.758;2023-03-01T09:16:11;6.50;93.60
43858;DHT22;29507;51.284;5.758;2023-03-01T09:18:37;6.50;93.70
43858;DHT22;29507;51.284;5.758;2023-03-01T09:21:12;6.90;93.10
43858;DHT22;29507;51.284;5.758;2023-03-01T09:23:39;7.10;91.80
43858;DHT22;29507;51.284;5.758;2023-03-01T09:26:07;7.20;91.10
43858;DHT22;29507;51.284;5.758;2023-03-01T09:28:34;7.50;90.60
43858;DHT22;29507;51.284;5.758;2023-03-01T09:31:00;7.40;90.10
43858;DHT22;29507;51.284;5.758;2023-03-01T09:33:28;7.50;90.20
43858;DHT22;29507;51.284;5.758;2023-03-01T09:36:06;7.70;89.70
43858;DHT22;29507;51.284;5.758;2023-03-01T09:38:32;7.80;87.80
43858;DHT22;29507;51.284;5.758;2023-03-01T09:40:59;8.00;87.10
43858;DHT22;29507;51.284;5.758;2023-03-01T09:43:44;8.00;86.50
43858;DHT22;29507;51.284;5.758;2023-03-01T09:46:13;8.00;84.10
43858;DHT22;29507;51.284;5.758;2023-03-01T09:48:44;7.80;85.50
43858;DHT22;29507;51.284;5.758;2023-03-01T09:51:31;7.80;85.40
43858;DHT22;29507;51.284;5.758;2023-03-01T09:54:00;8.10;84.40
43858;DHT22;29507;51.284;5.758;2023-03-01T09:56:33;8.00;83.50
43858;DHT22;29507;51.284;5.758;2023-03-01T10:04:47;8.00;82.30
43858;DHT22;29507;51.284;5.758;2023-03-01T10:09:40;8.70;81.00
43858;DHT22;29507;51.284;5.758;2023-03-01T10:12:16;8.80;79.80
43858;DHT22;29507;51.284;5.758;2023-03-01T10:17:38;9.40;78.60
43858;DHT22;29507;51.284;5.758;2023-03-01T10:20:25;10.00;77.60
43858;DHT22;29507;51.284;5.758;2023-03-01T10:22:52;9.70;76.20
43858;DHT22;29507;51.284;5.758;2023-03-01T10:25:36;9.50;75.70
43858;DHT22;29507;51.284;5.758;2023-03-01T10:28:29;9.20;74.90
43858;DHT22;29507;51.284;5.758;2023-03-01T10:30:58;9.10;76.20
43858;DHT22;29507;51.284;5.758;2023-03-01T10:33:27;9.30;75.40
43858;DHT22;29507;51.284;5.758;2023-03-01T10:35:54;9.40;76.00
43858;DHT22;29507;51.284;5.758;2023-03-01T10:38:20;9.60;75.70
43858;DHT22;29507;51.284;5.758;2023-03-01T10:43:27;9.50;73.60
43858;DHT22;29507;51.284;5.758;2023-03-01T10:45:55;9.70;73.80
43858;DHT22;29507;51.284;5.758;2023-03-01T10:53:24;8.80;75.00
43858;DHT22;29507;51.284;5.758;2023-03-01T10:56:00;8.40;74.40
43858;DHT22;29507;51.284;5.758;2023-03-01T10:58:27;8.40;74.90
43858;DHT22;29507;51.284;5.758;2023-03-01T11:00:58;8.40;74.80
43858;DHT22;29507;51.284;5.758;2023-03-01T11:11:15;9.70;73.90
43858;DHT22;29507;51.284;5.758;2023-03-01T11:14:13;9.70;72.60
43858;DHT22;29507;51.284;5.758;2023-03-01T11:16:41;9.90;74.10
43858;DHT22;29507;51.284;5.758;2023-03-01T11:21:40;9.90;71.10
43858;DHT22;29507;51.284;5.758;2023-03-01T11:24:11;9.80;72.20
43858;DHT22;29507;51.284;5.758;2023-03-01T11:26:41;10.20;74.10
43858;DHT22;29507;51.284;5.758;2023-03-01T11:29:16;10.80;71.80
43858;DHT22;29507;51.284;5.758;2023-03-01T11:31:44;10.40;70.10
43858;DHT22;29507;51.284;5.758;2023-03-01T11:34:36;9.90;70.60
43858;DHT22;29507;51.284;5.758;2023-03-01T11:37:15;9.70;71.00
43858;DHT22;29507;51.284;5.758;2023-03-01T11:45:03;8.80;71.60
43858;DHT22;29507;51.284;5.758;2023-03-01T11:47:47;9.00;72.00
43858;DHT22;29507;51.284;5.758;2023-03-01T11:50:44;9.80;71.20
43858;DHT22;29507;51.284;5.758;2023-03-01T11:58:45;11.30;66.40
43858;DHT22;29507;51.284;5.758;2023-03-01T12:04:30;11.80;66.40
43858;DHT22;29507;51.284;5.758;2023-03-01T12:07:10;11.90;66.40
43858;DHT22;29507;51.284;5.758;2023-03-01T12:20:53;13.10;65.70
43858;DHT22;29507;51.284;5.758;2023-03-01T12:23:45;13.60;64.90
43858;DHT22;29507;51.284;5.758;2023-03-01T12:35:13;12.30;64.60
43858;DHT22;29507;51.284;5.758;2023-03-01T12:37:54;12.70;65.50
43858;DHT22;29507;51.284;5.758;2023-03-01T12:43:26;12.50;63.60
43858;DHT22;29507;51.284;5.758;2023-03-01T12:51:29;12.30;65.10
43858;DHT22;29507;51.284;5.758;2023-03-01T12:53:57;12.70;63.30
43858;DHT22;29507;51.284;5.758;2023-03-01T12:56:27;12.40;62.60
43858;DHT22;29507;51.284;5.758;2023-03-01T12:59:17;11.90;63.30
43858;DHT22;29507;51.284;5.758;2023-03-01T13:12:46;12.30;61.60
43858;DHT22;29507;51.284;5.758;2023-03-01T13:15:25;12.80;61.30
43858;DHT22;29507;51.284;5.758;2023-03-01T13:17:56;13.10;62.20
43858;DHT22;29507;51.284;5.758;2023-03-01T13:23:30;13.90;61.00
43858;DHT22;29507;51.284;5.758;2023-03-01T13:28:38;15.10;59.70
43858;DHT22;29507;51.284;5.758;2023-03-01T13:31:11;14.10;58.90
43858;DHT22;29507;51.284;5.758;2023-03-01T13:33:56;13.50;60.10
43858;DHT22;29507;51.284;5.758;2023-03-01T13:41:53;13.70;58.30
43858;DHT22;29507;51.284;5.758;2023-03-01T13:44:28;13.50;60.00
43858;DHT22;29507;51.284;5.758;2023-03-01T13:49:26;13.80;60.10
43858;DHT22;29507;51.284;5.758;2023-03-01T13:51:52;14.10;59.70
43858;DHT22;29507;51.284;5.758;2023-03-01T13:54:29;14.20;58.80
43858;DHT22;29507;51.284;5.758;2023-03-01T13:56:55;13.90;57.40
43858;DHT22;29507;51.284;5.758;2023-03-01T13:59:23;13.70;57.80
43858;DHT22;29507;51.284;5.758;2023-03-01T14:01:56;14.10;58.40
43858;DHT22;29507;51.284;5.758;2023-03-01T14:04:28;14.40;57.50
43858;DHT22;29507;51.284;5.758;2023-03-01T14:07:29;14.50;58.50
43858;DHT22;29507;51.284;5.758;2023-03-01T14:10:00;15.30;56.80
43858;DHT22;29507;51.284;5.758;2023-03-01T14:22:44;15.90;57.20
43858;DHT22;29507;51.284;5.758;2023-03-01T14:25:27;16.00;55.80
43858;DHT22;29507;51.284;5.758;2023-03-01T14:27:56;16.00;55.70
43858;DHT22;29507;51.284;5.758;2023-03-01T14:30:30;16.30;56.30
43858;DHT22;29507;51.284;5.758;2023-03-01T14:32:59;16.10;55.70
43858;DHT22;29507;51.284;5.758;2023-03-01T14:35:31;15.20;55.50
43858;DHT22;29507;51.284;5.758;2023-03-01T14:37:57;14.60;56.90
43858;DHT22;29507;51.284;5.758;2023-03-01T14:40:29;13.70;57.90
43858;DHT22;29507;51.284;5.758;2023-03-01T14:42:58;13.30;58.10
43858;DHT22;29507;51.284;5.758;2023-03-01T14:45:26;13.20;58.80
43858;DHT22;29507;51.284;5.758;2023-03-01T14:47:52;13.70;59.50
43858;DHT22;29507;51.284;5.758;2023-03-01T14:50:26;13.80;59.00
43858;DHT22;29507;51.284;5.758;2023-03-01T14:52:55;13.40;58.60
43858;DHT22;29507;51.284;5.758;2023-03-01T14:57:53;14.20;58.80
43858;DHT22;29507;51.284;5.758;2023-03-01T15:00:21;14.40;57.50
43858;DHT22;29507;51.284;5.758;2023-03-01T15:02:49;14.10;58.10
43858;DHT22;29507;51.284;5.758;2023-03-01T15:05:18;13.80;58.10
43858;DHT22;29507;51.284;5.758;2023-03-01T15:07:44;14.00;58.80
43858;DHT22;29507;51.284;5.758;2023-03-01T15:10:40;14.00;58.10
43858;DHT22;29507;51.284;5.758;2023-03-01T15:13:23;14.20;59.00
43858;DHT22;29507;51.284;5.758;2023-03-01T15:15:53;14.20;58.00
43858;DHT22;29507;51.284;5.758;2023-03-01T15:18:29;14.20;58.10
43858;DHT22;29507;51.284;5.758;2023-03-01T15:20:56;14.30;58.50
43858;DHT22;29507;51.284;5.758;2023-03-01T15:23:30;13.80;57.90
43858;DHT22;29507;51.284;5.758;2023-03-01T15:25:57;13.70;59.00
43858;DHT22;29507;51.284;5.758;2023-03-01T15:28:29;13.90;58.80
43858;DHT22;29507;51.284;5.758;2023-03-01T15:31:11;14.00;58.00
43858;DHT22;29507;51.284;5.758;2023-03-01T15:33:38;13.70;58.00
43858;DHT22;29507;51.284;5.758;2023-03-01T15:36:44;13.60;58.00
43858;DHT22;29507;51.284;5.758;2023-03-01T15:42:04;13.20;58.70
43858;DHT22;29507;51.284;5.758;2023-03-01T15:44:34;13.20;58.90
43858;DHT22;29507;51.284;5.758;2023-03-01T15:47:00;12.90;59.10
43858;DHT22;29507;51.284;5.758;2023-03-01T15:49:42;12.40;59.00
43858;DHT22;29507;51.284;5.758;2023-03-01T15:52:13;12.00;60.10
43858;DHT22;29507;51.284;5.758;2023-03-01T15:54:41;11.80;60.90
43858;DHT22;29507;51.284;5.758;2023-03-01T15:57:13;11.50;60.70
43858;DHT22;29507;51.284;5.758;2023-03-01T15:59:42;11.30;61.40
43858;DHT22;29507;51.284;5.758;2023-03-01T16:02:12;11.20;62.20
43858;DHT22;29507;51.284;5.758;2023-03-01T16:04:39;10.80;61.80
43858;DHT22;29507;51.284;5.758;2023-03-01T16:07:05;10.40;62.90
43858;DHT22;29507;51.284;5.758;2023-03-01T16:09:31;10.20;63.00
43858;DHT22;29507;51.284;5.758;2023-03-01T16:11:56;9.80;63.30
43858;DHT22;29507;51.284;5.758;2023-03-01T16:14:22;9.50;64.30
43858;DHT22;29507;51.284;5.758;2023-03-01T16:16:48;9.30;65.00
43858;DHT22;29507;51.284;5.758;2023-03-01T16:19:14;9.20;66.60
43858;DHT22;29507;51.284;5.758;2023-03-01T16:21:42;9.00;66.10
43858;DHT22;29507;51.284;5.758;2023-03-01T16:24:12;8.70;66.70
43858;DHT22;29507;51.284;5.758;2023-03-01T16:26:38;8.40;67.30
43858;DHT22;29507;51.284;5.758;2023-03-01T16:29:04;8.10;67.50
43858;DHT22;29507;51.284;5.758;2023-03-01T16:31:30;7.80;68.30
43858;DHT22;29507;51.284;5.758;2023-03-01T16:33:57;7.50;69.00
43858;DHT22;29507;51.284;5.758;2023-03-01T16:36:24;7.20;70.00
43858;DHT22;29507;51.284;5.758;2023-03-01T16:38:51;6.90;70.70
43858;DHT22;29507;51.284;5.758;2023-03-01T16:41:18;6.50;71.50
43858;DHT22;29507;51.284;5.758;2023-03-01T16:43:44;6.30;72.90
43858;DHT22;29507;51.284;5.758;2023-03-01T16:46:16;6.20;72.40
43858;DHT22;29507;51.284;5.758;2023-03-01T16:48:42;5.90;73.30
43858;DHT22;29507;51.284;5.758;2023-03-01T16:51:08;5.60;74.80
43858;DHT22;29507;51.284;5.758;2023-03-01T16:53:35;5.30;75.70
43858;DHT22;29507;51.284;5.758;2023-03-01T16:56:02;5.10;76.40
43858;DHT22;29507;51.284;5.758;2023-03-01T16:58:29;4.90;76.60
43858;DHT22;29507;51.284;5.758;2023-03-01T17:00:55;4.90;77.00
43858;DHT22;29507;51.284;5.758;2023-03-01T17:03:23;4.90;77.40
43858;DHT22;29507;51.284;5.758;2023-03-01T17:05:49;4.70;77.30
43858;DHT22;29507;51.284;5.758;2023-03-01T17:08:15;4.50;78.30
43858;DHT22;29507;51.284;5.758;2023-03-01T17:10:41;4.40;79.50
43858;DHT22;29507;51.284;5.758;2023-03-01T17:13:08;4.30;80.10
43858;DHT22;29507;51.284;5.758;2023-03-01T17:15:35;4.20;80.80
43858;DHT22;29507;51.284;5.758;2023-03-01T17:18:02;4.00;81.40
43858;DHT22;29507;51.284;5.758;2023-03-01T17:20:28;3.90;81.80
43858;DHT22;29507;51.284;5.758;2023-03-01T17:22:54;3.60;82.20
43858;DHT22;29507;51.284;5.758;2023-03-01T17:25:19;3.40;83.30
43858;DHT22;29507;51.284;5.758;2023-03-01T17:27:45;3.30;84.30
43858;DHT22;29507;51.284;5.758;2023-03-01T17:30:12;3.20;85.20
43858;DHT22;29507;51.284;5.758;2023-03-01T17:32:38;3.20;84.60
43858;DHT22;29507;51.284;5.758;2023-03-01T17:35:04;3.10;85.80
43858;DHT22;29507;51.284;5.758;2023-03-01T17:37:31;2.90;85.40
43858;DHT22;29507;51.284;5.758;2023-03-01T17:39:57;2.90;85.50
43858;DHT22;29507;51.284;5.758;2023-03-01T17:42:22;2.90;85.30
43858;DHT22;29507;51.284;5.758;2023-03-01T17:44:48;2.80;85.30
43858;DHT22;29507;51.284;5.758;2023-03-01T17:47:13;2.80;85.50
43858;DHT22;29507;51.284;5.758;2023-03-01T17:49:39;2.70;85.90